Time;durP1;ratioP1;P1;durP2;ratioP2;P2;SDS_P1;SDS_P2;PMS_P1;PMS_P2;Temp;Humidity;BMP_temperature;BMP_pressure;BME280_temperature;BME280_humidity;BME280_pressure;Samples;Min_cycle;Max_cycle;Signal;HPM_P1;HPM_P2
2023/05/18 00:00:01;;;;;;;12.05;2.28;;;;;;;16.14;100.00;99688.16;5070161;28;20214;-73
2023/05/18 00:02:28;;;;;;;13.30;2.35;;;;;;;16.09;100.00;99690.81;5070006;28;20203;-73
2023/05/18 00:04:55;;;;;;;14.90;2.60;;;;;;;16.11;100.00;99688.19;5069394;28;20210;-73
2023/05/18 00:07:22;;;;;;;14.27;2.47;;;;;;;16.10;100.00;99695.19;5070342;28;20277;-73
2023/05/18 00:09:49;;;;;;;10.68;2.00;;;;;;;15.99;100.00;99690.97;5069464;28;20260;-69
2023/05/18 00:12:15;;;;;;;12.00;2.30;;;;;;;16.04;100.00;99694.41;5069583;28;20199;-69
2023/05/18 00:14:42;;;;;;;12.15;2.17;;;;;;;15.90;100.00;99689.34;5070282;28;20247;-73
2023/05/18 00:17:10;;;;;;;10.75;2.03;;;;;;;15.96;100.00;99689.25;5050851;28;20681;-73
2023/05/18 00:19:39;;;;;;;13.65;2.58;;;;;;;15.88;100.00;99689.34;5069543;28;20578;-73
2023/05/18 00:22:06;;;;;;;12.85;2.40;;;;;;;15.91;100.00;99690.22;5069782;28;20289;-73
2023/05/18 00:24:33;;;;;;;13.55;2.45;;;;;;;15.82;100.00;99691.19;5069549;28;20724;-73
2023/05/18 00:27:00;;;;;;;10.65;2.05;;;;;;;15.78;100.00;99679.91;5070122;28;20304;-73
2023/05/18 00:29:27;;;;;;;10.38;2.00;;;;;;;15.88;100.00;99693.72;5069748;28;20676;-73
2023/05/18 00:31:53;;;;;;;10.68;2.33;;;;;;;15.73;100.00;99688.69;5070578;28;20195;-73
2023/05/18 00:34:21;;;;;;;12.15;2.25;;;;;;;15.76;100.00;99691.28;5069957;28;20596;-73
2023/05/18 00:36:48;;;;;;;8.63;1.92;;;;;;;15.75;100.00;99686.91;5070300;28;20202;-74
2023/05/18 00:39:15;;;;;;;10.13;2.08;;;;;;;15.68;100.00;99682.66;5069703;28;20211;-73
2023/05/18 00:41:42;;;;;;;9.27;1.83;;;;;;;15.77;100.00;99687.75;5069893;28;20245;-74
2023/05/18 00:44:09;;;;;;;13.95;2.47;;;;;;;15.76;100.00;99671.22;5069618;28;20202;-74
2023/05/18 00:46:35;;;;;;;12.88;2.28;;;;;;;15.72;100.00;99689.56;5069845;28;20210;-74
2023/05/18 00:49:02;;;;;;;12.65;2.25;;;;;;;15.82;100.00;99696.41;5069348;28;20226;-74
2023/05/18 00:51:33;;;;;;;14.38;2.67;;;;;;;15.97;100.00;99706.69;5069666;28;20980;-73
2023/05/18 00:54:02;;;;;;;12.43;2.20;;;;;;;15.90;100.00;99694.59;5069758;28;20293;-73
2023/05/18 00:56:32;;;;;;;15.15;2.63;;;;;;;15.82;100.00;99699.03;5069765;28;20260;-74
2023/05/18 00:59:02;;;;;;;11.93;2.25;;;;;;;15.83;100.00;99698.16;5069514;28;20687;-74
2023/05/18 01:01:30;;;;;;;14.93;2.55;;;;;;;15.78;100.00;99707.78;5068034;28;20218;-73
2023/05/18 01:04:01;;;;;;;11.38;2.13;;;;;;;15.77;100.00;99695.59;5026455;28;20314;-74
2023/05/18 01:06:31;;;;;;;14.48;2.50;;;;;;;15.71;100.00;99698.28;5068784;28;20681;-74
2023/05/18 01:09:01;;;;;;;12.40;2.08;;;;;;;15.75;100.00;99710.44;5069272;28;20264;-74
2023/05/18 01:11:37;;;;;;;12.68;2.17;;;;;;;15.71;100.00;99703.53;5069711;28;20199;-74
2023/05/18 01:14:14;;;;;;;12.13;2.20;;;;;;;15.77;100.00;99693.84;5069656;28;20224;-74
2023/05/18 01:16:47;;;;;;;19.67;3.95;;;;;;;15.83;100.00;99701.66;5069741;28;20203;-74
2023/05/18 01:19:34;;;;;;;14.50;2.45;;;;;;;15.84;100.00;99689.41;5030847;28;20196;-74
2023/05/18 01:22:13;;;;;;;12.07;2.15;;;;;;;15.76;100.00;99675.59;5067533;28;20215;-74
2023/05/18 01:24:47;;;;;;;10.10;1.90;;;;;;;15.95;100.00;99703.22;5069614;28;20191;-74
2023/05/18 01:27:17;;;;;;;14.13;2.58;;;;;;;15.89;100.00;99703.31;5068749;28;20233;-74
2023/05/18 01:29:45;;;;;;;13.50;2.42;;;;;;;15.88;100.00;99701.56;5029898;28;20208;-74
2023/05/18 01:32:19;;;;;;;13.43;2.40;;;;;;;15.85;100.00;99691.16;5062810;28;20708;-74
2023/05/18 01:34:46;;;;;;;14.30;2.70;;;;;;;15.76;100.00;99696.50;5069177;28;20285;-74
2023/05/18 01:37:13;;;;;;;14.48;2.65;;;;;;;15.64;100.00;99687.06;5072030;28;20199;-74
2023/05/18 01:39:41;;;;;;;13.43;2.22;;;;;;;15.68;100.00;99696.59;5073217;28;20207;-74
2023/05/18 01:42:13;;;;;;;13.25;2.35;;;;;;;15.70;100.00;99684.34;5072316;28;20226;-74
2023/05/18 01:44:45;;;;;;;11.70;2.17;;;;;;;15.48;100.00;99655.88;5073331;28;20561;-74
2023/05/18 01:47:13;;;;;;;13.93;2.38;;;;;;;15.59;100.00;99695.84;5072904;28;20285;-73
2023/05/18 01:49:45;;;;;;;15.27;2.45;;;;;;;15.69;100.00;99700.06;5067178;28;20226;-74
2023/05/18 01:52:17;;;;;;;12.95;2.25;;;;;;;15.74;100.00;99688.66;5072489;28;20191;-74
2023/05/18 01:54:46;;;;;;;13.52;2.60;;;;;;;15.70;100.00;99701.78;5072888;28;20256;-74
2023/05/18 01:57:12;;;;;;;11.98;2.22;;;;;;;15.56;100.00;99688.00;5072974;28;20775;-74
2023/05/18 01:59:41;;;;;;;13.77;2.45;;;;;;;15.57;100.00;99685.41;5072502;28;20195;-73
2023/05/18 02:02:08;;;;;;;15.40;2.85;;;;;;;15.66;100.00;99707.97;5072807;28;20670;-74
2023/05/18 02:04:35;;;;;;;14.75;2.53;;;;;;;15.61;100.00;99708.00;5072985;28;20198;-74
2023/05/18 02:07:02;;;;;;;13.48;2.35;;;;;;;15.12;100.00;99631.03;5037858;28;20206;-73
2023/05/18 02:09:29;;;;;;;14.07;2.40;;;;;;;15.59;100.00;99706.28;5071898;28;20213;-73
2023/05/18 02:11:56;;;;;;;14.93;2.80;;;;;;;15.63;100.00;99692.28;5073029;28;20206;-73
2023/05/18 02:14:22;;;;;;;14.90;2.53;;;;;;;15.61;100.00;99694.06;5023444;28;20195;-73
2023/05/18 02:16:51;;;;;;;14.65;2.42;;;;;;;15.69;100.00;99702.69;5063788;28;20202;-73
2023/05/18 02:19:18;;;;;;;12.57;2.20;;;;;;;15.55;100.00;99697.63;5071964;28;20205;-73
2023/05/18 02:21:45;;;;;;;13.68;2.33;;;;;;;15.48;100.00;99701.13;5072174;28;20226;-72
2023/05/18 02:24:12;;;;;;;15.02;2.83;;;;;;;15.56;100.00;99704.56;5072795;28;20195;-72
2023/05/18 02:26:40;;;;;;;12.98;2.25;;;;;;;15.57;100.00;99708.03;5072421;28;20213;-72
2023/05/18 02:29:10;;;;;;;14.98;2.58;;;;;;;15.63;100.00;99711.44;5071619;28;20581;-75
2023/05/18 02:31:37;;;;;;;14.25;2.58;;;;;;;15.69;100.00;99721.00;5040961;28;20226;-73
2023/05/18 02:34:05;;;;;;;14.57;2.53;;;;;;;15.76;100.00;99712.19;5065589;28;20205;-73
2023/05/18 02:36:35;;;;;;;16.73;2.80;;;;;;;15.73;100.00;99728.75;5071505;28;20199;-73
2023/05/18 02:39:03;;;;;;;12.15;2.75;;;;;;;15.54;100.00;99705.47;5071717;28;20677;-73
2023/05/18 02:41:30;;;;;;;14.70;3.42;;;;;;;15.62;100.00;99735.00;5053330;28;20225;-73
2023/05/18 02:43:56;;;;;;;13.55;2.75;;;;;;;15.65;100.00;99737.59;5072338;28;20656;-73
2023/05/18 02:46:23;;;;;;;13.70;2.63;;;;;;;15.57;100.00;99739.41;5065911;28;20203;-74
2023/05/18 02:48:50;;;;;;;12.60;2.38;;;;;;;15.37;100.00;99743.03;5071785;28;20280;-73
2023/05/18 02:51:18;;;;;;;14.75;2.42;;;;;;;15.30;100.00;99732.69;5071334;28;20248;-74
2023/05/18 02:53:45;;;;;;;15.25;2.45;;;;;;;15.30;100.00;99714.41;5071970;28;20300;-78
2023/05/18 02:56:12;;;;;;;11.68;2.33;;;;;;;15.33;100.00;99733.53;5072318;28;20207;-74
2023/05/18 02:58:39;;;;;;;11.60;2.25;;;;;;;15.24;100.00;99697.03;5071657;28;20198;-70
2023/05/18 03:01:07;;;;;;;12.18;2.10;;;;;;;15.19;100.00;99714.50;5070425;28;20592;-73
2023/05/18 03:03:34;;;;;;;11.57;2.13;;;;;;;15.42;100.00;99742.13;5071749;28;20226;-73
2023/05/18 03:06:01;;;;;;;13.00;2.20;;;;;;;15.28;100.00;99743.16;5071618;28;20237;-71
2023/05/18 03:08:30;;;;;;;14.48;2.50;;;;;;;15.52;100.00;99759.50;5043239;28;20281;-72
2023/05/18 03:10:57;;;;;;;10.40;2.03;;;;;;;15.51;100.00;99760.38;5069211;28;20210;-72
2023/05/18 03:13:24;;;;;;;13.15;2.30;;;;;;;15.69;100.00;99757.56;5071950;28;20722;-77
2023/05/18 03:15:51;;;;;;;11.30;2.13;;;;;;;15.64;100.00;99752.41;5071077;28;20198;-72
2023/05/18 03:18:17;;;;;;;12.80;2.47;;;;;;;15.54;100.00;99757.72;5071520;28;20207;-72
2023/05/18 03:20:44;;;;;;;12.93;2.28;;;;;;;15.59;100.00;99755.94;5071179;28;20222;-71
2023/05/18 03:23:11;;;;;;;15.13;3.08;;;;;;;15.62;100.00;99767.25;5070958;28;20195;-71
2023/05/18 03:25:39;;;;;;;12.60;2.28;;;;;;;15.70;100.00;99764.50;5071200;28;20202;-72
2023/05/18 03:28:06;;;;;;;12.60;2.25;;;;;;;15.55;100.00;99773.41;5063855;28;20213;-72
2023/05/18 03:30:33;;;;;;;14.55;2.42;;;;;;;15.54;100.00;99769.06;5071153;28;20202;-73
2023/05/18 03:33:00;;;;;;;10.23;1.95;;;;;;;15.59;100.00;99771.63;5068891;28;20659;-72
2023/05/18 03:35:27;;;;;;;12.98;2.60;;;;;;;15.68;100.00;99774.13;5070173;28;20195;-72
2023/05/18 03:37:54;;;;;;;12.73;2.22;;;;;;;15.69;100.00;99776.75;5071122;28;20199;-72
2023/05/18 03:40:21;;;;;;;14.50;2.47;;;;;;;15.72;100.00;99792.41;5070273;28;20304;-72
2023/05/18 03:42:49;;;;;;;15.50;2.55;;;;;;;15.74;100.00;99805.44;5069528;28;20848;-72
2023/05/18 03:45:16;;;;;;;11.95;2.20;;;;;;;15.52;100.00;99796.09;5070859;28;20198;-71
2023/05/18 03:47:43;;;;;;;16.33;3.08;;;;;;;15.41;100.00;99797.91;5070076;28;20206;-71
2023/05/18 03:50:10;;;;;;;14.95;2.72;;;;;;;15.50;100.00;99803.94;5069769;28;20234;-72
2023/05/18 03:52:37;;;;;;;13.80;2.67;;;;;;;15.51;100.00;99810.03;5068461;28;20210;-72
2023/05/18 03:55:05;;;;;;;14.55;2.50;;;;;;;15.57;100.00;99820.41;5065046;28;20281;-72
2023/05/18 03:57:32;;;;;;;17.67;2.83;;;;;;;15.50;100.00;99823.97;5048149;28;20273;-71
2023/05/18 04:00:00;;;;;;;11.32;2.17;;;;;;;15.45;100.00;99786.50;5062790;28;20669;-71
2023/05/18 04:02:27;;;;;;;11.52;2.30;;;;;;;15.71;100.00;99824.63;5069621;28;20223;-72
2023/05/18 04:04:56;;;;;;;14.63;2.40;;;;;;;15.83;100.00;99828.88;5069341;28;20207;-72
2023/05/18 04:07:24;;;;;;;15.30;2.50;;;;;;;15.71;100.00;99837.69;5069893;28;20252;-72
2023/05/18 04:09:51;;;;;;;14.20;2.40;;;;;;;15.79;100.00;99850.69;5069864;28;20223;-72
2023/05/18 04:12:18;;;;;;;16.23;2.95;;;;;;;15.70;100.00;99819.41;5069550;28;20207;-72
2023/05/18 04:14:48;;;;;;;13.48;2.38;;;;;;;15.72;100.00;99846.41;5069855;28;20195;-71
2023/05/18 04:17:16;;;;;;;8.90;1.73;;;;;;;15.98;100.00;99849.63;5035154;28;20222;-71
2023/05/18 04:19:43;;;;;;;10.45;2.20;;;;;;;15.80;100.00;99850.66;5069716;28;20293;-72
2023/05/18 04:22:10;;;;;;;13.50;2.35;;;;;;;15.68;100.00;99849.94;5069482;28;20770;-71
2023/05/18 04:24:37;;;;;;;8.93;1.75;;;;;;;15.72;100.00;99846.41;5070087;28;20203;-71
2023/05/18 04:27:04;;;;;;;8.85;1.77;;;;;;;15.87;100.00;99854.13;5070122;28;20199;-73
2023/05/18 04:29:31;;;;;;;11.77;2.38;;;;;;;15.70;100.00;99848.16;5034537;28;20270;-73
2023/05/18 04:31:59;;;;;;;11.40;2.10;;;;;;;15.79;100.00;99853.31;5069538;28;20302;-73
2023/05/18 04:34:28;;;;;;;14.25;2.50;;;;;;;15.82;100.00;99855.91;5069627;28;20692;-73
2023/05/18 04:36:57;;;;;;;12.18;2.15;;;;;;;15.78;100.00;99855.06;5069613;28;20249;-73
2023/05/18 04:39:24;;;;;;;13.30;2.35;;;;;;;16.00;100.00;99855.72;5069948;28;20194;-73
2023/05/18 04:41:56;;;;;;;12.73;2.45;;;;;;;15.99;100.00;99867.03;5058489;28;20309;-73
2023/05/18 04:44:24;;;;;;;10.75;2.17;;;;;;;16.03;100.00;99868.75;5070106;28;20205;-73
2023/05/18 04:46:51;;;;;;;10.30;2.00;;;;;;;15.89;100.00;99862.78;5069666;28;20264;-73
2023/05/18 04:49:20;;;;;;;9.10;1.88;;;;;;;15.99;100.00;99861.81;5066725;28;20238;-72
2023/05/18 04:51:54;;;;;;;13.75;2.53;;;;;;;16.58;100.00;99878.63;5067900;28;20230;-72
2023/05/18 04:54:22;;;;;;;11.00;2.03;;;;;;;16.57;100.00;99883.00;5069011;28;20195;-67
2023/05/18 04:56:49;;;;;;;11.13;2.05;;;;;;;16.44;100.00;99884.00;5067988;28;20206;-73
2023/05/18 04:59:15;;;;;;;10.80;2.00;;;;;;;16.59;100.00;99902.13;5033924;28;20202;-72
2023/05/18 05:01:42;;;;;;;15.05;3.05;;;;;;;16.46;100.00;99895.31;5068716;28;20233;-72
2023/05/18 05:04:09;;;;;;;13.48;2.38;;;;;;;16.21;100.00;99894.72;5067689;28;20210;-72
2023/05/18 05:06:36;;;;;;;13.07;2.30;;;;;;;16.15;100.00;99905.25;5060107;28;20207;-73
2023/05/18 05:09:04;;;;;;;11.38;2.25;;;;;;;16.03;100.00;99894.91;5043026;28;20218;-72
2023/05/18 05:11:31;;;;;;;13.63;2.58;;;;;;;16.00;100.00;99910.63;5069871;28;20211;-72
2023/05/18 05:13:58;;;;;;;11.80;2.28;;;;;;;16.10;100.00;99911.41;5073316;28;20206;-71
2023/05/18 05:16:24;;;;;;;16.15;2.63;;;;;;;16.02;100.00;99903.63;5073148;28;20211;-68
2023/05/18 05:18:51;;;;;;;10.32;1.92;;;;;;;15.93;100.00;99926.38;5073120;28;20633;-73
2023/05/18 05:21:18;;;;;;;8.57;1.85;;;;;;;15.87;100.00;99930.78;5072566;28;20633;-72
2023/05/18 05:23:45;;;;;;;12.40;2.22;;;;;;;15.83;100.00;99929.09;5073236;28;20587;-73
2023/05/18 05:26:13;;;;;;;9.45;1.92;;;;;;;16.00;100.00;99938.53;5073425;28;20199;-72
2023/05/18 05:28:40;;;;;;;12.88;2.35;;;;;;;15.92;100.00;99938.59;5072918;28;20589;-73
2023/05/18 05:31:08;;;;;;;12.13;2.35;;;;;;;15.90;100.00;99932.53;5072201;28;20278;-73
2023/05/18 05:33:35;;;;;;;14.75;2.53;;;;;;;16.04;100.00;99948.94;5071986;28;20260;-73
2023/05/18 05:36:03;;;;;;;16.15;2.90;;;;;;;16.01;100.00;99949.00;5073134;28;20684;-73
2023/05/18 05:38:30;;;;;;;9.65;1.80;;;;;;;15.98;100.00;99954.22;5072870;28;20210;-72
2023/05/18 05:40:57;;;;;;;10.52;2.00;;;;;;;16.14;100.00;99965.41;5073376;28;20281;-70
2023/05/18 05:43:25;;;;;;;13.50;2.33;;;;;;;16.41;100.00;99961.69;5072084;28;20227;-69
2023/05/18 05:45:52;;;;;;;11.82;2.13;;;;;;;16.55;100.00;99967.63;5059943;28;20290;-69
2023/05/18 05:48:19;;;;;;;13.32;2.28;;;;;;;16.46;100.00;99962.47;5073120;28;20195;-69
2023/05/18 05:50:46;;;;;;;17.30;2.83;;;;;;;16.37;100.00;99974.75;5058893;28;20769;-70
2023/05/18 05:53:16;;;;;;;9.70;1.80;;;;;;;16.61;100.00;99976.31;5032370;28;20643;-70
2023/05/18 05:55:43;;;;;;;13.32;2.40;;;;;;;16.79;100.00;99977.84;5072930;28;20649;-69
2023/05/18 05:58:10;;;;;;;13.13;2.42;;;;;;;16.71;100.00;99966.59;5069101;28;20644;-70
2023/05/18 06:00:38;;;;;;;13.48;2.47;;;;;;;17.07;100.00;99978.38;5072597;28;20646;-73
2023/05/18 06:03:05;;;;;;;12.30;2.22;;;;;;;17.17;100.00;99985.22;5072433;28;20218;-74
2023/05/18 06:05:31;;;;;;;9.55;1.98;;;;;;;17.19;100.00;99980.84;5072733;28;20203;-74
2023/05/18 06:07:58;;;;;;;12.23;2.22;;;;;;;17.33;100.00;99982.38;5058462;28;20272;-74
2023/05/18 06:10:25;;;;;;;11.93;2.10;;;;;;;17.40;100.00;99969.19;5060666;28;20606;-73
2023/05/18 06:12:52;;;;;;;9.50;2.05;;;;;;;17.40;100.00;99977.03;5070456;28;20229;-73
2023/05/18 06:15:19;;;;;;;4.13;1.23;;;;;;;17.17;100.00;99980.84;5073289;28;20672;-70
2023/05/18 06:17:47;;;;;;;10.70;2.17;;;;;;;17.09;100.00;99966.97;5071338;28;20569;-69
2023/05/18 06:20:14;;;;;;;7.22;1.58;;;;;;;17.15;100.00;99977.38;5072843;28;20665;-71
2023/05/18 06:22:41;;;;;;;11.30;2.00;;;;;;;17.12;100.00;99990.50;5035982;28;20323;-71
2023/05/18 06:25:09;;;;;;;7.18;1.70;;;;;;;17.19;100.00;99994.78;5033516;28;20207;-70
2023/05/18 06:27:36;;;;;;;7.53;1.58;;;;;;;17.33;100.00;99992.88;5065847;28;20200;-70
2023/05/18 06:30:04;;;;;;;8.95;1.80;;;;;;;17.23;100.00;99999.09;5072454;28;20324;-70
2023/05/18 06:32:31;;;;;;;8.15;1.63;;;;;;;17.17;100.00;100000.94;5037349;28;20199;-70
2023/05/18 06:34:59;;;;;;;11.60;2.00;;;;;;;17.41;100.00;99987.50;5068187;28;20196;-70
2023/05/18 06:37:26;;;;;;;8.73;1.75;;;;;;;17.57;100.00;99996.91;5062752;28;20289;-70
2023/05/18 06:39:53;;;;;;;11.80;2.10;;;;;;;17.66;100.00;99995.91;5022733;28;20218;-70
2023/05/18 06:42:19;;;;;;;10.82;2.13;;;;;;;17.42;100.00;99996.22;5063491;28;20223;-70
2023/05/18 06:44:49;;;;;;;12.65;2.17;;;;;;;17.58;100.00;99997.78;5067446;28;20207;-70
2023/05/18 06:47:15;;;;;;;9.38;1.75;;;;;;;17.68;100.00;100004.63;5059445;28;20195;-70
2023/05/18 06:49:42;;;;;;;8.93;1.80;;;;;;;17.65;100.00;100005.53;5071739;28;20288;-69
2023/05/18 06:52:12;;;;;;;12.27;2.58;;;;;;;17.72;100.00;100004.56;5052366;28;20247;-70
2023/05/18 06:54:39;;;;;;;11.63;2.10;;;;;;;17.79;100.00;100015.81;5066214;28;20210;-70
2023/05/18 06:57:06;;;;;;;12.07;2.17;;;;;;;17.72;100.00;100011.56;5071471;28;20198;-70
2023/05/18 06:59:33;;;;;;;13.38;2.80;;;;;;;17.73;100.00;100015.88;5059297;28;20200;-69
2023/05/18 07:02:00;;;;;;;13.75;2.40;;;;;;;17.75;100.00;100008.88;5064571;28;20229;-70
2023/05/18 07:04:27;;;;;;;11.15;2.05;;;;;;;17.74;100.00;100020.25;5071248;28;20680;-69
2023/05/18 07:06:54;;;;;;;12.48;2.20;;;;;;;17.72;100.00;100011.56;5060686;28;20567;-69
2023/05/18 07:09:23;;;;;;;8.38;1.65;;;;;;;18.02;100.00;100016.31;5068486;28;20203;-69
2023/05/18 07:11:49;;;;;;;12.18;2.08;;;;;;;18.16;100.00;100023.94;5071845;28;20211;-70
2023/05/18 07:14:16;;;;;;;10.93;1.92;;;;;;;18.41;100.00;100029.66;5071062;28;20213;-70
2023/05/18 07:16:46;;;;;;;17.25;2.70;;;;;;;18.38;100.00;100041.06;5071189;28;20210;-69
2023/05/18 07:19:12;;;;;;;12.80;2.28;;;;;;;18.56;100.00;100030.28;5066564;28;20305;-71
2023/05/18 07:21:39;;;;;;;15.43;2.65;;;;;;;18.69;100.00;100042.28;5070952;28;20645;-70
2023/05/18 07:24:06;;;;;;;16.00;2.67;;;;;;;18.60;100.00;100041.59;5071411;28;20213;-69
2023/05/18 07:26:34;;;;;;;10.95;1.95;;;;;;;18.83;100.00;100050.75;5070997;28;20653;-69
2023/05/18 07:29:01;;;;;;;12.05;2.38;;;;;;;18.96;100.00;100050.53;5067723;28;20207;-69
2023/05/18 07:31:28;;;;;;;11.70;2.00;;;;;;;19.54;100.00;100058.13;5071063;28;20219;-71
2023/05/18 07:33:55;;;;;;;11.38;2.15;;;;;;;19.62;100.00;100061.47;5067210;28;20199;-68
2023/05/18 07:36:22;;;;;;;11.15;1.95;;;;;;;19.70;100.00;100044.59;5070708;28;20213;-69
2023/05/18 07:38:53;;;;;;;11.15;2.38;;;;;;;19.70;100.00;100067.41;5069010;28;20206;-70
2023/05/18 07:41:21;;;;;;;10.48;2.03;;;;;;;19.60;100.00;100071.16;5070717;28;20211;-69
2023/05/18 07:43:49;;;;;;;13.23;2.28;;;;;;;19.56;100.00;100064.22;5070746;28;20233;-70
2023/05/18 07:46:16;;;;;;;10.10;1.88;;;;;;;19.53;100.00;100074.81;5070656;28;20203;-70
2023/05/18 07:48:43;;;;;;;10.88;2.00;;;;;;;19.75;100.00;100065.56;5070343;28;20239;-70
2023/05/18 07:51:11;;;;;;;13.43;2.33;;;;;;;19.83;100.00;100076.78;5070605;28;20673;-70
2023/05/18 07:53:38;;;;;;;11.45;2.17;;;;;;;20.08;100.00;100084.97;5056627;28;20194;-69
2023/05/18 07:56:06;;;;;;;10.63;2.05;;;;;;;20.41;100.00;100083.28;5070831;28;20316;-68
2023/05/18 07:58:33;;;;;;;9.63;1.88;;;;;;;20.26;100.00;100080.09;5060329;28;20207;-68
2023/05/18 08:01:01;;;;;;;14.68;2.55;;;;;;;20.59;100.00;100078.44;5056169;28;20199;-69
2023/05/18 08:03:28;;;;;;;9.40;1.98;;;;;;;20.90;100.00;100091.69;5070401;28;20711;-69
2023/05/18 08:05:54;;;;;;;10.48;2.10;;;;;;;20.95;100.00;100102.09;5070377;28;20264;-69
2023/05/18 08:08:21;;;;;;;10.10;1.92;;;;;;;20.85;100.00;100104.09;5070536;28;20206;-70
2023/05/18 08:10:48;;;;;;;10.57;2.10;;;;;;;20.65;100.00;100116.94;5058681;28;20203;-69
2023/05/18 08:13:15;;;;;;;11.40;2.15;;;;;;;20.19;100.00;100110.13;5056207;28;20206;-69
2023/05/18 08:15:41;;;;;;;9.65;1.95;;;;;;;19.52;100.00;100121.28;5070088;28;20207;-69
2023/05/18 08:18:10;;;;;;;10.18;2.00;;;;;;;19.44;100.00;100103.94;5070150;28;20202;-69
2023/05/18 08:20:36;;;;;;;10.85;2.10;;;;;;;19.55;100.00;100117.75;5070396;28;20252;-68
2023/05/18 08:23:03;;;;;;;8.40;1.70;;;;;;;19.44;100.00;100111.84;5056044;28;20226;-69
2023/05/18 08:25:30;;;;;;;10.52;2.03;;;;;;;19.52;100.00;100126.53;5070464;28;20647;-69
2023/05/18 08:27:57;;;;;;;9.38;1.83;;;;;;;19.86;100.00;100133.72;5070893;28;20225;-68
2023/05/18 08:30:25;;;;;;;7.00;1.52;;;;;;;19.95;100.00;100128.25;5070861;28;20199;-69
2023/05/18 08:32:52;;;;;;;7.53;1.52;;;;;;;20.23;100.00;100127.56;5071071;28;20293;-69
2023/05/18 08:35:20;;;;;;;9.73;1.85;;;;;;;20.32;100.00;100131.81;5071055;28;20202;-69
2023/05/18 08:37:48;;;;;;;7.03;1.60;;;;;;;20.40;100.00;100134.25;5071039;28;20641;-69
2023/05/18 08:40:15;;;;;;;10.10;1.95;;;;;;;20.03;100.00;100132.44;5070916;28;20203;-69
2023/05/18 08:42:48;;;;;;;10.82;1.92;;;;;;;20.26;100.00;100148.56;5070653;28;20245;-69
2023/05/18 08:45:23;;;;;;;11.07;2.22;;;;;;;20.25;100.00;100146.84;5070421;28;20199;-69
2023/05/18 08:47:50;;;;;;;7.30;1.60;;;;;;;20.72;100.00;100160.69;5070847;28;20205;-69
2023/05/18 08:50:22;;;;;;;12.30;2.10;;;;;;;20.76;100.00;100157.06;5070366;28;20262;-69
2023/05/18 08:52:54;;;;;;;8.70;1.83;;;;;;;20.63;100.00;100137.19;5070698;28;20209;-69
2023/05/18 08:55:23;;;;;;;10.32;1.95;;;;;;;20.07;100.00;100115.69;5070459;28;20296;-69
2023/05/18 08:57:54;;;;;;;8.85;1.98;;;;;;;19.93;100.00;100117.78;5070453;28;20206;-69
2023/05/18 09:00:22;;;;;;;7.68;1.70;;;;;;;20.57;100.00;100137.34;5070655;28;20316;-68
2023/05/18 09:02:50;;;;;;;9.68;1.88;;;;;;;20.74;100.00;100165.00;5070624;28;20222;-69
2023/05/18 09:05:18;;;;;;;8.18;1.65;;;;;;;20.87;100.00;100184.00;5067711;28;20584;-70
2023/05/18 09:07:47;;;;;;;10.45;2.05;;;;;;;21.10;100.00;100165.88;5056112;28;20203;-69
2023/05/18 09:10:14;;;;;;;10.32;1.90;;;;;;;21.33;100.00;100177.56;5052758;28;20656;-70
2023/05/18 09:12:43;;;;;;;9.73;2.10;;;;;;;21.58;100.00;100178.63;5070302;28;20298;-69
2023/05/18 09:15:10;;;;;;;11.52;2.10;;;;;;;21.17;100.00;100170.06;5061691;28;20277;-70
2023/05/18 09:17:37;;;;;;;9.35;1.88;;;;;;;21.47;100.00;100183.34;5064869;28;20199;-69
2023/05/18 09:20:05;;;;;;;9.75;1.80;;;;;;;21.32;100.00;100181.09;5070226;28;20198;-69
2023/05/18 09:22:34;;;;;;;9.30;1.77;;;;;;;21.30;100.00;100178.50;5069693;28;20207;-68
2023/05/18 09:25:02;;;;;;;9.30;2.00;;;;;;;21.40;100.00;100187.06;5056205;28;20227;-68
2023/05/18 09:27:30;;;;;;;6.78;1.58;;;;;;;21.35;100.00;100175.75;5070099;28;20203;-69
2023/05/18 09:29:58;;;;;;;10.73;2.05;;;;;;;21.46;100.00;100194.78;5066284;28;20200;-69
2023/05/18 09:32:26;;;;;;;10.75;2.10;;;;;;;21.62;100.00;100204.88;5025234;28;20207;-71
2023/05/18 09:34:54;;;;;;;9.98;1.88;;;;;;;21.38;100.00;100204.69;5069931;28;20669;-70
2023/05/18 09:37:22;;;;;;;9.82;1.90;;;;;;;21.14;98.71;100204.44;5061327;28;20287;-70
2023/05/18 09:39:59;;;;;;;9.30;1.83;;;;;;;21.21;99.70;100205.13;5064807;28;20203;-69
2023/05/18 09:42:35;;;;;;;10.60;1.98;;;;;;;21.05;100.00;100204.63;5034565;28;20195;-67
2023/05/18 09:45:02;;;;;;;14.45;2.60;;;;;;;21.61;97.72;100204.94;5055613;28;20661;-67
2023/05/18 09:47:29;;;;;;;6.53;1.45;;;;;;;21.89;96.30;100200.59;5069741;28;20225;-68
2023/05/18 09:49:57;;;;;;;12.63;2.30;;;;;;;22.18;87.88;100200.63;5070092;28;20840;-68
2023/05/18 09:52:23;;;;;;;8.95;1.85;;;;;;;22.23;90.00;100200.47;5056006;28;20203;-68
2023/05/18 09:54:59;;;;;;;9.70;1.90;;;;;;;22.30;84.78;100190.56;5069798;28;20211;-68
2023/05/18 09:57:26;;;;;;;11.43;2.28;;;;;;;22.08;85.23;100180.66;5071524;28;20289;-68
2023/05/18 10:00:02;;;;;;;12.93;2.30;;;;;;;22.18;89.03;100171.56;5073147;28;20211;-68
2023/05/18 10:02:30;;;;;;;13.40;2.45;;;;;;;21.98;89.81;100181.84;5073094;28;20198;-68
2023/05/18 10:04:57;;;;;;;12.15;2.30;;;;;;;22.28;86.54;100187.13;5073133;28;20203;-69
2023/05/18 10:07:24;;;;;;;15.43;2.72;;;;;;;21.67;89.95;100171.31;5073033;28;20657;-68
2023/05/18 10:10:02;;;;;;;14.95;2.55;;;;;;;22.55;84.31;100181.81;5037795;28;20211;-68
2023/05/18 10:12:29;;;;;;;14.30;2.45;;;;;;;22.78;83.91;100188.16;5053049;28;20228;-68
2023/05/18 10:14:57;;;;;;;12.73;2.30;;;;;;;22.75;86.73;100191.78;5037724;28;20213;-68
2023/05/18 10:17:26;;;;;;;13.73;2.35;;;;;;;22.96;84.96;100179.63;5072968;28;20221;-68
2023/05/18 10:19:55;;;;;;;10.43;2.00;;;;;;;22.79;83.97;100201.34;5072860;28;20202;-69
2023/05/18 10:22:23;;;;;;;8.93;1.83;;;;;;;22.46;87.38;100203.25;5072862;28;20209;-69
2023/05/18 10:24:51;;;;;;;13.80;2.40;;;;;;;21.77;91.45;100191.25;5058813;28;20226;-69
2023/05/18 10:27:23;;;;;;;14.63;2.58;;;;;;;22.14;92.31;100193.69;5072693;28;20203;-68
2023/05/18 10:29:51;;;;;;;9.75;2.10;;;;;;;21.92;92.20;100192.59;5072722;28;20203;-72
2023/05/18 10:32:20;;;;;;;13.60;2.28;;;;;;;21.85;93.69;100198.94;5072909;28;20608;-76
2023/05/18 10:34:47;;;;;;;10.48;1.80;;;;;;;21.92;97.13;100192.59;5072597;28;20290;-71
2023/05/18 10:37:19;;;;;;;14.23;2.33;;;;;;;22.27;94.03;100170.41;5072631;28;20199;-70
2023/05/18 10:39:47;;;;;;;13.40;2.28;;;;;;;22.83;92.47;100178.31;5059688;28;20659;-70
2023/05/18 10:42:16;;;;;;;14.80;2.63;;;;;;;22.66;91.02;100174.41;5072846;28;20215;-80
2023/05/18 10:44:44;;;;;;;14.25;2.35;;;;;;;22.34;90.64;100165.78;5072969;28;20317;-73
2023/05/18 10:47:12;;;;;;;13.02;2.15;;;;;;;22.22;91.61;100194.31;5073052;28;20645;-70
2023/05/18 10:49:42;;;;;;;14.18;2.28;;;;;;;21.79;93.10;100192.97;5037368;28;20329;-70
2023/05/18 10:52:12;;;;;;;15.52;2.58;;;;;;;21.58;98.93;100190.00;5072869;28;20260;-70
2023/05/18 10:54:40;;;;;;;17.13;2.67;;;;;;;21.98;98.11;100191.53;5072591;28;20276;-71
2023/05/18 10:57:10;;;;;;;9.32;1.75;;;;;;;21.78;95.32;100181.53;5072827;28;20202;-71
2023/05/18 10:59:39;;;;;;;16.75;2.92;;;;;;;21.58;99.38;100189.19;5072771;28;20211;-71
2023/05/18 11:02:08;;;;;;;9.98;1.90;;;;;;;21.66;98.78;100195.09;5072650;28;20197;-71
2023/05/18 11:04:34;;;;;;;10.43;1.92;;;;;;;21.07;100.00;100155.38;5072861;28;20708;-71
2023/05/18 11:07:03;;;;;;;13.02;2.13;;;;;;;21.06;100.00;100180.00;5072568;28;20203;-72
2023/05/18 11:09:30;;;;;;;11.38;2.00;;;;;;;21.15;100.00;100179.78;5072604;28;20210;-71
2023/05/18 11:11:58;;;;;;;11.95;2.00;;;;;;;21.17;100.00;100167.44;5072482;28;20776;-71
2023/05/18 11:14:27;;;;;;;10.32;2.05;;;;;;;21.09;100.00;100137.72;5072421;28;20650;-72
2023/05/18 11:16:54;;;;;;;9.13;1.70;;;;;;;21.09;100.00;100145.63;5065872;28;20286;-73
2023/05/18 11:19:26;;;;;;;13.30;2.20;;;;;;;21.01;100.00;100134.41;5070791;28;20671;-72